createdAt,value
2022-08-03T00:02:20.190Z,46.54
2022-08-03T00:04:48.834Z,46.79
2022-08-03T00:07:18.601Z,46.80
2022-08-03T00:09:46.991Z,46.96
2022-08-03T00:12:15.997Z,46.92
2022-08-03T00:14:44.731Z,47.01
2022-08-03T00:17:13.151Z,46.71
2022-08-03T00:19:41.562Z,46.86
2022-08-03T00:22:10.048Z,47.19
2022-08-03T00:24:39.911Z,47.43
2022-08-03T00:27:08.321Z,47.84
2022-08-03T00:29:59.740Z,48.41
2022-08-03T00:32:25.137Z,48.93
2022-08-03T00:34:58.476Z,48.85
2022-08-03T00:37:40.600Z,49.26
2022-08-03T00:40:14.238Z,49.29
2022-08-03T00:42:51.768Z,49.52
2022-08-03T00:45:21.446Z,49.53
2022-08-03T00:47:50.070Z,50.02
2022-08-03T00:50:20.535Z,49.84
2022-08-03T00:52:49.225Z,49.85
2022-08-03T00:55:19.151Z,50.40
2022-08-03T00:57:48.438Z,50.35
2022-08-03T01:00:20.862Z,50.63
2022-08-03T01:02:52.074Z,50.77
2022-08-03T01:05:21.025Z,50.82
2022-08-03T01:08:04.827Z,50.81
2022-08-03T01:10:43.138Z,50.88
2022-08-03T01:14:03.699Z,51.26
2022-08-03T01:16:25.907Z,51.43
2022-08-03T01:19:24.783Z,51.76
2022-08-03T01:22:10.921Z,51.78
2022-08-03T01:24:52.350Z,52.22
2022-08-03T01:27:30.873Z,52.24
2022-08-03T01:30:07.970Z,52.47
2022-08-03T01:32:59.365Z,52.79
2022-08-03T01:35:38.553Z,53.02
2022-08-03T01:38:13.066Z,53.21
2022-08-03T01:40:44.570Z,53.46
2022-08-03T01:44:27.212Z,53.59
2022-08-03T01:46:10.032Z,53.66
2022-08-03T01:48:41.230Z,54.08
2022-08-03T01:51:11.862Z,53.90
2022-08-03T01:53:43.443Z,53.95
2022-08-03T01:56:13.274Z,54.38
2022-08-03T01:58:43.618Z,54.09
2022-08-03T02:01:15.106Z,54.24
2022-08-03T02:04:00.871Z,54.53
2022-08-03T02:07:01.334Z,54.57
2022-08-03T02:09:23.847Z,54.76
2022-08-03T02:11:53.495Z,55.02
2022-08-03T02:14:23.877Z,55.27
2022-08-03T02:16:54.543Z,55.50
2022-08-03T02:19:23.828Z,55.15
2022-08-03T02:21:56.448Z,55.02
2022-08-03T02:24:30.403Z,54.88
2022-08-03T02:27:00.583Z,55.13
2022-08-03T02:29:40.223Z,54.81
2022-08-03T02:32:16.778Z,54.79
2022-08-03T02:34:50.608Z,55.41
2022-08-03T02:37:21.258Z,55.46
2022-08-03T02:39:53.443Z,55.76
2022-08-03T02:42:24.605Z,55.41
2022-08-03T02:44:56.991Z,55.94
2022-08-03T02:47:29.270Z,55.73
2022-08-03T02:50:20.269Z,55.72
2022-08-03T02:52:50.692Z,55.21
2022-08-03T02:55:21.319Z,55.34
2022-08-03T02:57:51.347Z,55.82
2022-08-03T03:00:28.417Z,55.59
2022-08-03T03:03:00.840Z,56.04
2022-08-03T03:05:54.774Z,56.74
2022-08-03T03:08:28.156Z,56.65
2022-08-03T03:10:59.458Z,56.58
2022-08-03T03:13:30.564Z,56.80
2022-08-03T03:16:04.838Z,56.68
2022-08-03T03:18:36.275Z,56.83
2022-08-03T03:21:06.346Z,57.30
2022-08-03T03:23:38.272Z,57.59
2022-08-03T03:26:07.710Z,57.45
2022-08-03T03:28:38.123Z,57.53
2022-08-03T03:31:07.306Z,58.03
2022-08-03T03:33:38.353Z,58.12
2022-08-03T03:36:08.513Z,57.50
2022-08-03T03:38:37.786Z,57.92
2022-08-03T03:41:07.085Z,57.62
2022-08-03T03:43:35.801Z,57.70
2022-08-03T03:46:05.146Z,58.35
2022-08-03T03:48:36.288Z,58.25
2022-08-03T03:51:05.153Z,58.63
2022-08-03T03:53:33.792Z,58.80
2022-08-03T03:56:03.158Z,58.78
2022-08-03T03:58:33.307Z,58.61
2022-08-03T04:01:02.383Z,58.44
2022-08-03T04:03:31.049Z,58.39
2022-08-03T04:06:33.136Z,59.05
2022-08-03T04:09:20.218Z,58.48
2022-08-03T04:11:53.422Z,58.73
2022-08-03T04:14:27.013Z,58.34
2022-08-03T04:17:00.587Z,57.82
2022-08-03T04:19:35.942Z,58.06
2022-08-03T04:22:12.233Z,58.24
2022-08-03T04:24:46.167Z,58.02
2022-08-03T04:27:18.877Z,57.87
2022-08-03T04:29:50.118Z,57.92
2022-08-03T04:32:20.301Z,57.92
2022-08-03T04:34:48.977Z,57.72
2022-08-03T04:37:33.970Z,57.37
2022-08-03T04:40:04.999Z,57.14
2022-08-03T04:42:35.317Z,57.18
2022-08-03T04:45:05.815Z,57.19
2022-08-03T04:47:35.467Z,56.66
2022-08-03T04:50:09.160Z,55.40
2022-08-03T04:52:42.074Z,53.96
2022-08-03T04:55:11.342Z,52.35
2022-08-03T04:57:39.876Z,51.28
2022-08-03T05:00:10.155Z,50.46
2022-08-03T05:02:38.651Z,49.13
2022-08-03T05:05:08.289Z,48.66
2022-08-03T05:07:36.858Z,47.55
2022-08-03T05:10:15.960Z,47.41
2022-08-03T05:12:47.015Z,46.44
2022-08-03T05:15:16.216Z,45.91
2022-08-03T05:17:45.148Z,45.91
2022-08-03T05:20:13.831Z,44.97
2022-08-03T05:22:46.533Z,44.33
2022-08-03T05:25:16.920Z,43.92
2022-08-03T05:27:47.531Z,44.41
2022-08-03T05:30:31.239Z,44.64
2022-08-03T05:33:04.130Z,43.50
2022-08-03T05:35:56.157Z,43.21
2022-08-03T05:38:24.040Z,44.03
2022-08-03T05:41:22.615Z,44.45
2022-08-03T05:43:48.068Z,43.68
2022-08-03T05:46:16.716Z,44.04
2022-08-03T05:48:45.496Z,43.88
2022-08-03T05:51:14.071Z,42.65
2022-08-03T05:53:43.543Z,42.13
2022-08-03T05:56:16.337Z,41.82
2022-08-03T05:58:47.704Z,41.78
2022-08-03T06:01:17.048Z,41.40
2022-08-03T06:03:45.877Z,40.05
2022-08-03T06:06:14.537Z,39.26
2022-08-03T06:08:44.161Z,38.57
2022-08-03T06:11:14.232Z,38.39
2022-08-03T06:13:42.751Z,38.75
2022-08-03T06:16:11.689Z,38.72
2022-08-03T06:18:41.300Z,38.75
2022-08-03T06:21:15.180Z,37.41
2022-08-03T06:23:52.880Z,37.19
2022-08-03T06:26:26.003Z,36.72
2022-08-03T06:28:54.993Z,36.56
2022-08-03T06:31:32.493Z,36.01
2022-08-03T06:34:32.658Z,35.23
2022-08-03T06:36:53.268Z,34.74
2022-08-03T06:39:23.634Z,34.63
2022-08-03T06:41:54.573Z,34.20
2022-08-03T06:44:23.949Z,34.62
2022-08-03T06:46:52.995Z,34.46
2022-08-03T06:49:21.436Z,35.79
2022-08-03T06:52:04.887Z,35.95
2022-08-03T06:54:39.252Z,35.49
2022-08-03T06:57:11.523Z,35.09
2022-08-03T07:00:07.775Z,34.66
2022-08-03T07:02:28.644Z,34.68
2022-08-03T07:04:58.063Z,34.96
2022-08-03T07:07:26.632Z,34.60
2022-08-03T07:09:57.767Z,33.62
2022-08-03T07:12:30.299Z,33.29
2022-08-03T07:15:02.181Z,33.34
2022-08-03T07:17:32.491Z,32.13
2022-08-03T07:20:02.416Z,32.41
2022-08-03T07:22:30.985Z,32.76
2022-08-03T07:24:59.780Z,32.14
2022-08-03T07:27:30.479Z,30.52
2022-08-03T07:29:59.989Z,30.34
2022-08-03T07:32:31.468Z,30.38
2022-08-03T07:35:01.591Z,30.27
2022-08-03T07:37:31.225Z,29.36
2022-08-03T07:40:00.380Z,28.57
2022-08-03T07:42:30.534Z,28.84
2022-08-03T07:45:00.028Z,29.18
2022-08-03T07:47:35.263Z,28.82
2022-08-03T07:50:08.830Z,28.52
2022-08-03T07:52:50.769Z,27.62
2022-08-03T07:55:21.481Z,27.10
2022-08-03T07:58:02.518Z,26.68
2022-08-03T08:00:31.120Z,26.69
2022-08-03T08:02:59.751Z,26.53
2022-08-03T08:05:29.498Z,26.82
2022-08-03T08:07:57.900Z,25.85
2022-08-03T08:10:26.359Z,25.06
2022-08-03T08:12:56.970Z,25.23
2022-08-03T08:15:25.642Z,24.84
2022-08-03T08:17:56.389Z,24.72
2022-08-03T08:20:30.771Z,23.76
2022-08-03T08:23:02.790Z,23.54
2022-08-03T08:25:33.208Z,22.97
2022-08-03T08:28:31.929Z,23.89
2022-08-03T08:30:52.999Z,22.91
2022-08-03T08:33:23.093Z,22.68
2022-08-03T08:35:54.460Z,21.75
2022-08-03T08:38:23.580Z,21.84
2022-08-03T08:40:52.284Z,22.14
2022-08-03T08:43:22.036Z,22.67
2022-08-03T08:45:51.820Z,22.27
2022-08-03T08:48:25.887Z,23.39
2022-08-03T08:50:55.311Z,20.78
2022-08-03T08:53:27.888Z,21.31
2022-08-03T08:56:01.487Z,21.35
2022-08-03T08:58:37.907Z,22.11
2022-08-03T09:01:07.763Z,21.66
2022-08-03T09:03:36.333Z,21.82
2022-08-03T09:06:05.084Z,21.89
2022-08-03T09:08:34.627Z,23.24
2022-08-03T09:11:03.302Z,21.43
2022-08-03T09:13:34.258Z,21.79
2022-08-03T09:16:14.917Z,21.58
2022-08-03T09:18:45.580Z,24.79
2022-08-03T09:21:36.284Z,21.44
2022-08-03T09:24:16.363Z,21.19
2022-08-03T09:26:53.723Z,21.78
2022-08-03T09:29:23.931Z,21.16
2022-08-03T09:32:03.326Z,24.13
2022-08-03T09:34:32.522Z,23.00
2022-08-03T09:37:00.947Z,21.33
2022-08-03T09:39:41.600Z,21.32
2022-08-03T09:42:14.950Z,20.93
2022-08-03T09:44:47.252Z,22.27
2022-08-03T09:47:18.119Z,22.28
2022-08-03T09:50:02.211Z,22.02
2022-08-03T09:52:39.125Z,21.87
2022-08-03T09:56:02.374Z,23.34
2022-08-03T09:58:10.463Z,22.92
2022-08-03T10:00:56.245Z,25.62
2022-08-03T10:03:25.736Z,25.22
2022-08-03T10:05:59.399Z,24.50
2022-08-03T10:08:28.308Z,23.19
2022-08-03T10:10:58.638Z,25.19
2022-08-03T10:13:27.276Z,22.91
2022-08-03T10:16:22.329Z,22.69
2022-08-03T10:18:45.608Z,22.99
2022-08-03T10:21:18.400Z,23.10
2022-08-03T10:23:48.994Z,25.95
2022-08-03T10:26:20.429Z,22.99
2022-08-03T10:28:51.625Z,23.61
2022-08-03T10:31:23.609Z,24.03
2022-08-03T10:33:58.195Z,22.07
2022-08-03T10:36:32.605Z,22.18
2022-08-03T10:39:02.212Z,22.57
2022-08-03T10:41:42.504Z,25.38
2022-08-03T10:44:15.673Z,23.36
2022-08-03T10:46:46.987Z,25.57
2022-08-03T10:49:21.466Z,27.76
2022-08-03T10:52:13.865Z,23.52
2022-08-03T10:55:11.089Z,24.41
2022-08-03T10:57:58.250Z,23.08
2022-08-03T11:00:28.514Z,22.29
2022-08-03T11:03:10.213Z,24.76
2022-08-03T11:05:42.607Z,23.88
2022-08-03T11:08:35.930Z,25.51
2022-08-03T11:11:28.548Z,27.21
2022-08-03T11:14:04.689Z,27.43
2022-08-03T11:16:36.190Z,23.97
2022-08-03T11:19:08.235Z,23.27
2022-08-03T11:21:57.235Z,23.53
2022-08-03T11:25:02.898Z,23.67
2022-08-03T11:27:34.238Z,24.30
2022-08-03T11:30:07.437Z,24.19
2022-08-03T11:33:00.331Z,23.24
2022-08-03T11:35:32.007Z,23.51
2022-08-03T11:38:11.973Z,23.88
2022-08-03T11:40:46.041Z,23.05
2022-08-03T11:43:47.993Z,25.86
2022-08-03T11:46:29.926Z,24.93
2022-08-03T11:49:10.451Z,22.59
2022-08-03T11:51:41.083Z,25.49
2022-08-03T11:54:09.579Z,23.48
2022-08-03T11:56:50.160Z,26.64
2022-08-03T11:59:22.093Z,28.88
2022-08-03T12:01:51.486Z,26.93
2022-08-03T12:04:20.189Z,26.98
2022-08-03T12:07:03.656Z,29.91
2022-08-03T12:09:34.439Z,31.15
2022-08-03T12:12:02.967Z,29.86
2022-08-03T12:14:50.666Z,28.12
2022-08-03T12:17:20.406Z,30.17
2022-08-03T12:19:49.061Z,29.76
2022-08-03T12:22:32.682Z,25.74
2022-08-03T12:25:01.108Z,25.49
2022-08-03T12:27:30.154Z,26.89
2022-08-03T12:30:00.900Z,28.53
2022-08-03T12:32:30.505Z,31.04
2022-08-03T12:35:01.490Z,29.12
2022-08-03T12:37:31.927Z,31.33
2022-08-03T12:40:10.041Z,32.93
2022-08-03T12:42:41.335Z,31.93
2022-08-03T12:45:27.137Z,27.14
2022-08-03T12:47:59.063Z,25.78
2022-08-03T12:50:32.443Z,26.08
2022-08-03T12:53:04.717Z,24.92
2022-08-03T12:55:56.404Z,27.86
2022-08-03T12:58:34.886Z,25.68
2022-08-03T13:01:09.900Z,27.80
2022-08-03T13:03:45.762Z,29.43
2022-08-03T13:06:20.872Z,30.96
2022-08-03T13:08:52.199Z,29.67
2022-08-03T13:11:52.589Z,31.30
2022-08-03T13:14:19.849Z,30.78
2022-08-03T13:16:49.718Z,30.74
2022-08-03T13:19:18.273Z,30.86
2022-08-03T13:22:01.615Z,26.44
2022-08-03T13:24:34.540Z,31.21
2022-08-03T13:28:01.758Z,31.84
2022-08-03T13:29:54.034Z,32.64
2022-08-03T13:32:23.483Z,33.70
2022-08-03T13:34:52.051Z,27.99
2022-08-03T13:37:20.765Z,29.42
2022-08-03T13:39:59.327Z,30.71
2022-08-03T13:42:31.020Z,31.25
2022-08-03T13:44:59.830Z,30.59
2022-08-03T13:47:28.514Z,32.56
2022-08-03T13:50:01.403Z,32.88
2022-08-03T13:52:33.018Z,32.03
2022-08-03T13:55:03.263Z,31.28
2022-08-03T13:58:02.917Z,32.64
2022-08-03T14:00:26.632Z,31.67
2022-08-03T14:03:06.608Z,31.67
2022-08-03T14:05:38.905Z,31.70
2022-08-03T14:08:08.456Z,31.10
2022-08-03T14:10:40.864Z,28.33
2022-08-03T14:13:10.045Z,31.69
2022-08-03T14:15:38.844Z,32.14
2022-08-03T14:18:11.967Z,28.07
2022-08-03T14:20:48.675Z,26.20
2022-08-03T14:23:18.938Z,29.81
2022-08-03T14:25:52.508Z,31.68
2022-08-03T14:28:24.006Z,32.63
2022-08-03T14:30:54.123Z,30.92
2022-08-03T14:33:23.235Z,27.53
2022-08-03T14:35:53.504Z,30.02
2022-08-03T14:38:22.939Z,30.08
2022-08-03T14:40:53.361Z,26.80
2022-08-03T14:43:22.279Z,26.09
2022-08-03T14:45:53.397Z,31.33
2022-08-03T14:50:24.424Z,32.74
2022-08-03T14:51:10.698Z,32.44
2022-08-03T14:53:39.313Z,33.02
2022-08-03T14:56:10.669Z,32.49
2022-08-03T14:58:39.957Z,32.65
2022-08-03T15:02:03.119Z,33.37
2022-08-03T15:03:57.231Z,33.29
2022-08-03T15:06:25.885Z,28.47
2022-08-03T15:11:44.562Z,27.57
2022-08-03T15:14:13.497Z,30.44
2022-08-03T15:16:43.857Z,27.63
2022-08-03T15:20:03.087Z,27.08
2022-08-03T15:22:01.678Z,28.44
2022-08-03T15:24:30.704Z,31.06
2022-08-03T15:27:00.635Z,31.51
2022-08-03T15:30:06.148Z,32.14
2022-08-03T15:32:23.142Z,28.67
2022-08-03T15:34:52.176Z,31.46
2022-08-03T15:37:21.303Z,33.33
2022-08-03T15:39:59.202Z,33.04
2022-08-03T15:42:31.793Z,31.26
2022-08-03T15:45:00.529Z,31.70
2022-08-03T15:47:29.054Z,33.21
2022-08-03T15:49:57.605Z,31.31
2022-08-03T15:52:26.215Z,30.53
2022-08-03T15:54:54.860Z,32.55
2022-08-03T15:57:23.815Z,31.74
2022-08-03T15:59:53.872Z,32.00
2022-08-03T16:02:22.413Z,31.71
2022-08-03T16:04:52.150Z,28.74
2022-08-03T16:07:41.225Z,31.74
2022-08-03T16:10:30.587Z,29.40
2022-08-03T16:13:02.449Z,32.26
2022-08-03T16:15:32.302Z,31.35
2022-08-03T16:18:07.111Z,32.80
2022-08-03T16:20:36.065Z,33.21
2022-08-03T16:23:11.573Z,32.97
2022-08-03T16:25:42.482Z,33.54
2022-08-03T16:28:15.182Z,33.39
2022-08-03T16:30:47.507Z,33.04
2022-08-03T16:33:17.824Z,33.10
2022-08-03T16:35:47.086Z,33.31
2022-08-03T16:38:19.182Z,31.45
2022-08-03T16:40:51.791Z,33.27
2022-08-03T16:43:22.133Z,34.29
2022-08-03T16:45:52.539Z,34.98
2022-08-03T16:48:21.139Z,35.08
2022-08-03T16:50:49.650Z,33.28
2022-08-03T16:53:32.960Z,34.51
2022-08-03T16:56:04.606Z,34.58
2022-08-03T16:58:41.437Z,33.61
2022-08-03T17:01:21.879Z,32.26
2022-08-03T17:04:01.297Z,34.03
2022-08-03T17:06:35.666Z,34.25
2022-08-03T17:09:08.709Z,34.43
2022-08-03T17:11:46.447Z,34.21
2022-08-03T17:14:17.489Z,34.54
2022-08-03T17:16:57.486Z,34.60
2022-08-03T17:19:27.823Z,33.93
2022-08-03T17:22:04.208Z,34.30
2022-08-03T17:24:41.027Z,34.38
2022-08-03T17:28:42.079Z,34.03
2022-08-03T17:30:10.180Z,33.66
2022-08-03T17:32:52.606Z,33.28
2022-08-03T17:35:34.475Z,33.88
2022-08-03T17:38:08.989Z,34.34
2022-08-03T17:40:50.155Z,33.98
2022-08-03T17:44:14.887Z,34.17
2022-08-03T17:46:10.912Z,34.85
2022-08-03T17:48:42.433Z,34.99
2022-08-03T17:51:17.886Z,35.00
2022-08-03T17:53:56.865Z,35.14
2022-08-03T17:56:42.627Z,34.67
2022-08-03T17:59:52.089Z,32.98
2022-08-03T18:06:11.975Z,34.46
2022-08-03T18:08:29.856Z,32.20
2022-08-03T18:11:14.245Z,33.03
2022-08-03T18:14:06.954Z,31.31
2022-08-03T18:16:49.523Z,32.02
2022-08-03T18:19:18.843Z,31.07
2022-08-03T18:22:03.703Z,29.99
2022-08-03T18:24:32.943Z,28.52
2022-08-03T18:27:02.608Z,30.58
2022-08-03T18:29:33.662Z,30.11
2022-08-03T18:32:07.733Z,31.35
2022-08-03T18:34:53.398Z,31.68
2022-08-03T18:37:26.348Z,31.21
2022-08-03T18:39:58.347Z,33.74
2022-08-03T18:42:28.441Z,34.05
2022-08-03T18:45:14.777Z,34.61
2022-08-03T18:47:59.062Z,34.00
2022-08-03T18:50:36.177Z,31.65
2022-08-03T18:53:19.628Z,33.79
2022-08-03T18:56:15.956Z,34.13
2022-08-03T18:59:00.131Z,31.71
2022-08-03T19:01:59.114Z,33.39
2022-08-03T19:04:33.460Z,34.03
2022-08-03T19:07:08.080Z,34.34
2022-08-03T19:09:49.354Z,35.26
2022-08-03T19:12:30.588Z,35.47
2022-08-03T19:15:12.383Z,36.03
2022-08-03T19:17:50.207Z,36.33
2022-08-03T19:20:25.191Z,36.39
2022-08-03T19:22:56.091Z,36.54
2022-08-03T19:25:34.349Z,36.32
2022-08-03T19:28:06.522Z,37.13
2022-08-03T19:30:40.645Z,36.69
2022-08-03T19:33:16.546Z,37.15
2022-08-03T19:35:55.498Z,36.63
2022-08-03T19:38:29.092Z,36.87
2022-08-03T19:41:05.680Z,37.75
2022-08-03T19:43:53.933Z,37.93
2022-08-03T19:46:30.900Z,38.24
2022-08-03T19:49:10.670Z,38.02
2022-08-03T19:52:02.592Z,38.52
2022-08-03T19:54:52.796Z,38.35
2022-08-03T19:57:27.304Z,38.14
2022-08-03T19:59:57.391Z,38.67
2022-08-03T20:02:29.724Z,38.96
2022-08-03T20:04:59.952Z,38.44
2022-08-03T20:07:32.883Z,34.41
2022-08-03T20:10:04.245Z,38.09
2022-08-03T20:12:39.412Z,39.15
2022-08-03T20:15:10.586Z,39.11
2022-08-03T20:17:57.086Z,39.41
2022-08-03T20:20:32.128Z,39.60
2022-08-03T20:23:03.446Z,38.77
2022-08-03T20:25:55.699Z,39.27
2022-08-03T20:28:35.844Z,39.44
2022-08-03T20:31:30.583Z,39.74
2022-08-03T20:34:01.685Z,39.71
2022-08-03T20:36:30.361Z,38.81
2022-08-03T20:38:59.566Z,38.70
2022-08-03T20:41:28.354Z,40.01
2022-08-03T20:44:01.870Z,38.45
2022-08-03T20:46:41.705Z,39.47
2022-08-03T20:49:23.032Z,38.65
2022-08-03T20:51:53.588Z,37.02
2022-08-03T20:54:29.156Z,38.32
2022-08-03T20:56:59.804Z,37.53
2022-08-03T20:59:46.968Z,37.51
2022-08-03T21:02:30.198Z,38.42
2022-08-03T21:08:05.150Z,37.40
2022-08-03T21:10:41.977Z,37.27
2022-08-03T21:13:04.111Z,33.25
2022-08-03T21:13:07.969Z,38.66
2022-08-03T21:13:27.798Z,37.63
2022-08-03T21:16:04.828Z,37.59
2022-08-03T21:18:47.027Z,37.28
2022-08-03T21:21:17.588Z,37.38
2022-08-03T21:23:48.798Z,37.50
2022-08-03T21:26:19.841Z,37.44
2022-08-03T21:28:49.854Z,37.91
2022-08-03T21:31:25.531Z,37.76
2022-08-03T21:33:57.715Z,38.01
2022-08-03T21:36:28.148Z,38.38
2022-08-03T21:38:57.938Z,38.20
2022-08-03T21:41:27.363Z,38.38
2022-08-03T21:43:55.795Z,38.15
2022-08-03T21:46:27.635Z,38.19
2022-08-03T21:50:07.691Z,37.95
2022-08-03T21:51:53.430Z,37.29
2022-08-03T21:54:24.077Z,37.77
2022-08-03T21:56:55.387Z,37.70
2022-08-03T21:59:24.902Z,38.21
2022-08-03T22:01:58.312Z,37.89
2022-08-03T22:04:38.054Z,37.47
2022-08-03T22:07:17.906Z,37.69
2022-08-03T22:09:51.138Z,37.70
2022-08-03T22:12:24.366Z,37.83
2022-08-03T22:15:00.463Z,38.43
2022-08-03T22:17:55.885Z,37.71
2022-08-03T22:20:22.653Z,38.06
2022-08-03T22:22:56.939Z,38.14
2022-08-03T22:25:30.783Z,37.91
2022-08-03T22:28:00.949Z,38.11
2022-08-03T22:30:29.565Z,37.94
2022-08-03T22:33:00.941Z,38.40
2022-08-03T22:35:29.806Z,38.15
2022-08-03T22:38:00.112Z,38.15
2022-08-03T22:40:29.533Z,38.68
2022-08-03T22:42:58.869Z,38.60
2022-08-03T22:46:07.617Z,38.83
2022-08-03T22:48:18.261Z,38.71
2022-08-03T22:50:47.908Z,39.11
2022-08-03T22:53:18.914Z,39.23
2022-08-03T22:55:48.947Z,38.98
2022-08-03T22:58:17.706Z,39.57
2022-08-03T23:00:54.126Z,38.80
2022-08-03T23:04:00.481Z,39.15
2022-08-03T23:06:18.097Z,39.27
2022-08-03T23:08:48.711Z,39.30
2022-08-03T23:11:20.055Z,39.82
2022-08-03T23:13:53.605Z,39.98
2022-08-03T23:16:28.633Z,40.23
2022-08-03T23:19:06.534Z,40.94
2022-08-03T23:22:00.046Z,40.64
2022-08-03T23:24:32.046Z,41.13
2022-08-03T23:27:00.808Z,40.28
2022-08-03T23:29:31.691Z,40.50
2022-08-03T23:32:02.521Z,41.48
2022-08-03T23:34:50.767Z,40.77
2022-08-03T23:37:20.989Z,40.83
2022-08-03T23:39:50.558Z,40.74
2022-08-03T23:42:21.045Z,40.68
2022-08-03T23:44:56.518Z,40.99
2022-08-03T23:47:46.784Z,41.09
2022-08-03T23:50:18.560Z,41.32
2022-08-03T23:53:03.384Z,41.17
2022-08-03T23:55:57.561Z,41.22
2022-08-03T23:58:40.578Z,41.42
